sensor_id;sensor_type;location;lat;lon;timestamp;temperature;humidity
4103;DHT22;2065;49.790;9.620;2023-01-25T00:00:27;6.70;58.50
4103;DHT22;2065;49.790;9.620;2023-01-25T00:02:55;6.70;58.70
4103;DHT22;2065;49.790;9.620;2023-01-25T00:05:22;6.70;58.40
4103;DHT22;2065;49.790;9.620;2023-01-25T00:07:49;6.70;58.60
4103;DHT22;2065;49.790;9.620;2023-01-25T00:10:17;6.60;58.40
4103;DHT22;2065;49.790;9.620;2023-01-25T00:12:44;6.60;58.70
4103;DHT22;2065;49.790;9.620;2023-01-25T00:15:11;6.60;58.40
4103;DHT22;2065;49.790;9.620;2023-01-25T00:17:38;6.50;58.90
4103;DHT22;2065;49.790;9.620;2023-01-25T00:20:08;6.70;58.90
4103;DHT22;2065;49.790;9.620;2023-01-25T00:22:35;6.60;58.20
4103;DHT22;2065;49.790;9.620;2023-01-25T00:25:02;6.60;58.30
4103;DHT22;2065;49.790;9.620;2023-01-25T00:27:29;6.60;58.60
4103;DHT22;2065;49.790;9.620;2023-01-25T00:29:56;6.70;58.30
4103;DHT22;2065;49.790;9.620;2023-01-25T00:32:48;6.60;58.40
4103;DHT22;2065;49.790;9.620;2023-01-25T00:35:20;6.70;58.60
4103;DHT22;2065;49.790;9.620;2023-01-25T00:37:48;6.80;58.50
4103;DHT22;2065;49.790;9.620;2023-01-25T00:40:18;6.40;59.00
4103;DHT22;2065;49.790;9.620;2023-01-25T00:42:45;6.50;59.20
4103;DHT22;2065;49.790;9.620;2023-01-25T00:45:13;6.70;58.90
4103;DHT22;2065;49.790;9.620;2023-01-25T00:47:40;6.80;58.20
4103;DHT22;2065;49.790;9.620;2023-01-25T00:50:08;6.90;58.40
4103;DHT22;2065;49.790;9.620;2023-01-25T00:52:38;6.90;58.00
4103;DHT22;2065;49.790;9.620;2023-01-25T00:55:07;6.90;58.20
4103;DHT22;2065;49.790;9.620;2023-01-25T00:57:34;6.90;58.10
4103;DHT22;2065;49.790;9.620;2023-01-25T01:00:01;6.70;58.00
4103;DHT22;2065;49.790;9.620;2023-01-25T01:02:29;6.70;58.20
4103;DHT22;2065;49.790;9.620;2023-01-25T01:04:56;6.70;58.20
4103;DHT22;2065;49.790;9.620;2023-01-25T01:07:23;6.50;58.20
4103;DHT22;2065;49.790;9.620;2023-01-25T01:09:52;6.30;59.20
4103;DHT22;2065;49.790;9.620;2023-01-25T01:12:20;6.60;58.90
4103;DHT22;2065;49.790;9.620;2023-01-25T01:14:47;6.60;58.30
4103;DHT22;2065;49.790;9.620;2023-01-25T01:17:14;6.60;58.30
4103;DHT22;2065;49.790;9.620;2023-01-25T01:19:40;6.60;58.50
4103;DHT22;2065;49.790;9.620;2023-01-25T01:22:07;6.60;58.40
4103;DHT22;2065;49.790;9.620;2023-01-25T01:24:34;6.70;58.40
4103;DHT22;2065;49.790;9.620;2023-01-25T01:27:03;6.40;58.10
4103;DHT22;2065;49.790;9.620;2023-01-25T01:29:31;6.50;58.50
4103;DHT22;2065;49.790;9.620;2023-01-25T01:31:58;6.50;58.50
4103;DHT22;2065;49.790;9.620;2023-01-25T01:34:26;6.40;58.40
4103;DHT22;2065;49.790;9.620;2023-01-25T01:36:53;6.40;58.90
4103;DHT22;2065;49.790;9.620;2023-01-25T01:39:21;6.50;58.40
4103;DHT22;2065;49.790;9.620;2023-01-25T01:41:47;6.30;58.50
4103;DHT22;2065;49.790;9.620;2023-01-25T01:44:19;6.50;58.80
4103;DHT22;2065;49.790;9.620;2023-01-25T01:46:54;6.60;58.50
4103;DHT22;2065;49.790;9.620;2023-01-25T01:49:26;6.60;58.30
4103;DHT22;2065;49.790;9.620;2023-01-25T01:52:03;6.50;57.80
4103;DHT22;2065;49.790;9.620;2023-01-25T01:54:37;6.60;58.30
4103;DHT22;2065;49.790;9.620;2023-01-25T01:57:10;6.50;58.10
4103;DHT22;2065;49.790;9.620;2023-01-25T01:59:42;6.50;58.30
4103;DHT22;2065;49.790;9.620;2023-01-25T02:02:10;6.50;58.60
4103;DHT22;2065;49.790;9.620;2023-01-25T02:04:38;6.60;58.50
4103;DHT22;2065;49.790;9.620;2023-01-25T02:07:15;6.70;58.20
4103;DHT22;2065;49.790;9.620;2023-01-25T02:09:46;6.80;58.00
4103;DHT22;2065;49.790;9.620;2023-01-25T02:12:14;6.70;58.50
4103;DHT22;2065;49.790;9.620;2023-01-25T02:14:50;6.50;58.30
4103;DHT22;2065;49.790;9.620;2023-01-25T02:17:24;6.50;58.40
4103;DHT22;2065;49.790;9.620;2023-01-25T02:19:57;6.50;58.50
4103;DHT22;2065;49.790;9.620;2023-01-25T02:22:32;6.60;58.30
4103;DHT22;2065;49.790;9.620;2023-01-25T02:25:06;6.50;58.90
4103;DHT22;2065;49.790;9.620;2023-01-25T02:27:37;6.40;58.70
4103;DHT22;2065;49.790;9.620;2023-01-25T02:30:06;6.50;58.70
4103;DHT22;2065;49.790;9.620;2023-01-25T02:32:34;6.60;58.30
4103;DHT22;2065;49.790;9.620;2023-01-25T02:35:01;6.60;58.40
4103;DHT22;2065;49.790;9.620;2023-01-25T02:37:28;6.60;58.30
4103;DHT22;2065;49.790;9.620;2023-01-25T02:39:56;6.40;58.80
4103;DHT22;2065;49.790;9.620;2023-01-25T02:42:29;6.50;58.50
4103;DHT22;2065;49.790;9.620;2023-01-25T02:44:57;6.40;58.80
4103;DHT22;2065;49.790;9.620;2023-01-25T02:47:24;6.30;58.50
4103;DHT22;2065;49.790;9.620;2023-01-25T02:49:51;6.20;59.00
4103;DHT22;2065;49.790;9.620;2023-01-25T02:52:18;6.30;59.20
4103;DHT22;2065;49.790;9.620;2023-01-25T02:54:45;6.30;58.70
4103;DHT22;2065;49.790;9.620;2023-01-25T02:57:12;6.40;58.40
4103;DHT22;2065;49.790;9.620;2023-01-25T02:59:45;6.00;58.70
4103;DHT22;2065;49.790;9.620;2023-01-25T03:02:13;6.10;58.90
4103;DHT22;2065;49.790;9.620;2023-01-25T03:04:41;6.20;58.80
4103;DHT22;2065;49.790;9.620;2023-01-25T03:07:08;6.30;58.70
4103;DHT22;2065;49.790;9.620;2023-01-25T03:09:35;6.30;58.30
4103;DHT22;2065;49.790;9.620;2023-01-25T03:12:03;6.40;58.40
4103;DHT22;2065;49.790;9.620;2023-01-25T03:14:32;6.30;58.70
4103;DHT22;2065;49.790;9.620;2023-01-25T03:17:00;6.40;58.50
4103;DHT22;2065;49.790;9.620;2023-01-25T03:19:27;6.40;58.60
4103;DHT22;2065;49.790;9.620;2023-01-25T03:21:55;6.40;58.10
4103;DHT22;2065;49.790;9.620;2023-01-25T03:24:24;6.30;58.70
4103;DHT22;2065;49.790;9.620;2023-01-25T03:26:50;6.50;58.70
4103;DHT22;2065;49.790;9.620;2023-01-25T03:29:55;6.60;58.20
4103;DHT22;2065;49.790;9.620;2023-01-25T03:32:27;6.60;57.70
4103;DHT22;2065;49.790;9.620;2023-01-25T03:34:54;6.30;58.30
4103;DHT22;2065;49.790;9.620;2023-01-25T03:37:21;6.10;58.80
4103;DHT22;2065;49.790;9.620;2023-01-25T03:39:49;6.20;59.00
4103;DHT22;2065;49.790;9.620;2023-01-25T03:42:19;6.00;58.90
4103;DHT22;2065;49.790;9.620;2023-01-25T03:44:47;5.90;59.20
4103;DHT22;2065;49.790;9.620;2023-01-25T03:47:14;6.00;59.40
4103;DHT22;2065;49.790;9.620;2023-01-25T03:49:43;6.10;59.00
4103;DHT22;2065;49.790;9.620;2023-01-25T03:52:10;6.40;58.60
4103;DHT22;2065;49.790;9.620;2023-01-25T03:54:40;6.60;58.20
4103;DHT22;2065;49.790;9.620;2023-01-25T03:57:08;6.50;57.70
4103;DHT22;2065;49.790;9.620;2023-01-25T03:59:56;6.50;57.90
4103;DHT22;2065;49.790;9.620;2023-01-25T04:02:23;6.30;58.30
4103;DHT22;2065;49.790;9.620;2023-01-25T04:04:53;6.40;58.10
4103;DHT22;2065;49.790;9.620;2023-01-25T04:07:21;6.40;58.10
4103;DHT22;2065;49.790;9.620;2023-01-25T04:09:47;6.30;58.10
4103;DHT22;2065;49.790;9.620;2023-01-25T04:12:16;6.30;58.00
4103;DHT22;2065;49.790;9.620;2023-01-25T04:14:44;6.50;58.00
4103;DHT22;2065;49.790;9.620;2023-01-25T04:17:19;6.50;57.60
4103;DHT22;2065;49.790;9.620;2023-01-25T04:19:59;6.50;57.90
4103;DHT22;2065;49.790;9.620;2023-01-25T04:22:33;6.40;57.60
4103;DHT22;2065;49.790;9.620;2023-01-25T04:25:02;6.30;57.90
4103;DHT22;2065;49.790;9.620;2023-01-25T04:27:29;6.30;57.70
4103;DHT22;2065;49.790;9.620;2023-01-25T04:30:03;6.30;58.00
4103;DHT22;2065;49.790;9.620;2023-01-25T04:32:34;6.40;58.90
4103;DHT22;2065;49.790;9.620;2023-01-25T04:35:03;6.40;58.00
4103;DHT22;2065;49.790;9.620;2023-01-25T04:37:30;6.40;57.90
4103;DHT22;2065;49.790;9.620;2023-01-25T04:39:58;6.50;57.60
4103;DHT22;2065;49.790;9.620;2023-01-25T04:42:29;6.40;57.40
4103;DHT22;2065;49.790;9.620;2023-01-25T04:44:56;6.40;57.60
4103;DHT22;2065;49.790;9.620;2023-01-25T04:47:23;6.20;58.30
4103;DHT22;2065;49.790;9.620;2023-01-25T04:49:50;6.30;58.10
4103;DHT22;2065;49.790;9.620;2023-01-25T04:52:22;6.30;58.00
4103;DHT22;2065;49.790;9.620;2023-01-25T04:54:49;6.40;57.80
4103;DHT22;2065;49.790;9.620;2023-01-25T04:57:16;6.30;57.80
4103;DHT22;2065;49.790;9.620;2023-01-25T04:59:48;6.40;57.70
4103;DHT22;2065;49.790;9.620;2023-01-25T05:02:15;6.10;57.90
4103;DHT22;2065;49.790;9.620;2023-01-25T05:04:42;6.20;58.20
4103;DHT22;2065;49.790;9.620;2023-01-25T05:07:10;6.20;57.90
4103;DHT22;2065;49.790;9.620;2023-01-25T05:09:38;6.10;58.20
4103;DHT22;2065;49.790;9.620;2023-01-25T05:12:06;6.00;58.40
4103;DHT22;2065;49.790;9.620;2023-01-25T05:14:48;5.90;58.50
4103;DHT22;2065;49.790;9.620;2023-01-25T05:17:15;6.00;58.70
4103;DHT22;2065;49.790;9.620;2023-01-25T05:19:43;6.00;58.70
4103;DHT22;2065;49.790;9.620;2023-01-25T05:22:14;6.10;58.40
4103;DHT22;2065;49.790;9.620;2023-01-25T05:24:48;6.10;58.20
4103;DHT22;2065;49.790;9.620;2023-01-25T05:27:17;6.20;58.50
4103;DHT22;2065;49.790;9.620;2023-01-25T05:30:04;6.20;58.20
4103;DHT22;2065;49.790;9.620;2023-01-25T05:32:38;6.30;57.80
4103;DHT22;2065;49.790;9.620;2023-01-25T05:35:06;6.50;57.90
4103;DHT22;2065;49.790;9.620;2023-01-25T05:37:33;6.50;57.50
4103;DHT22;2065;49.790;9.620;2023-01-25T05:40:07;6.50;57.30
4103;DHT22;2065;49.790;9.620;2023-01-25T05:42:37;6.40;57.60
4103;DHT22;2065;49.790;9.620;2023-01-25T05:45:09;6.30;57.90
4103;DHT22;2065;49.790;9.620;2023-01-25T05:47:38;6.10;58.10
4103;DHT22;2065;49.790;9.620;2023-01-25T05:50:06;6.10;58.60
4103;DHT22;2065;49.790;9.620;2023-01-25T05:52:45;6.10;58.40
4103;DHT22;2065;49.790;9.620;2023-01-25T05:55:13;6.20;58.40
4103;DHT22;2065;49.790;9.620;2023-01-25T05:57:40;6.30;58.10
4103;DHT22;2065;49.790;9.620;2023-01-25T06:00:09;6.20;58.50
4103;DHT22;2065;49.790;9.620;2023-01-25T06:02:40;6.20;58.10
4103;DHT22;2065;49.790;9.620;2023-01-25T06:05:09;6.20;57.90
4103;DHT22;2065;49.790;9.620;2023-01-25T06:07:37;6.20;58.20
4103;DHT22;2065;49.790;9.620;2023-01-25T06:10:05;6.20;58.10
4103;DHT22;2065;49.790;9.620;2023-01-25T06:12:33;6.20;58.40
4103;DHT22;2065;49.790;9.620;2023-01-25T06:15:01;6.20;58.50
4103;DHT22;2065;49.790;9.620;2023-01-25T06:17:28;6.20;58.30
4103;DHT22;2065;49.790;9.620;2023-01-25T06:20:03;6.30;58.00
4103;DHT22;2065;49.790;9.620;2023-01-25T06:22:37;6.40;58.40
4103;DHT22;2065;49.790;9.620;2023-01-25T06:25:04;6.40;58.00
4103;DHT22;2065;49.790;9.620;2023-01-25T06:27:33;6.40;57.90
4103;DHT22;2065;49.790;9.620;2023-01-25T06:30:00;5.90;58.50
4103;DHT22;2065;49.790;9.620;2023-01-25T06:32:30;5.60;59.60
4103;DHT22;2065;49.790;9.620;2023-01-25T06:34:57;5.80;59.50
4103;DHT22;2065;49.790;9.620;2023-01-25T06:37:24;5.90;58.80
4103;DHT22;2065;49.790;9.620;2023-01-25T06:39:51;5.70;59.10
4103;DHT22;2065;49.790;9.620;2023-01-25T06:42:19;5.70;59.70
4103;DHT22;2065;49.790;9.620;2023-01-25T06:44:47;5.90;59.90
4103;DHT22;2065;49.790;9.620;2023-01-25T06:47:14;6.00;59.40
4103;DHT22;2065;49.790;9.620;2023-01-25T06:49:41;6.20;58.90
4103;DHT22;2065;49.790;9.620;2023-01-25T06:52:08;6.30;58.20
4103;DHT22;2065;49.790;9.620;2023-01-25T06:54:35;6.30;58.40
4103;DHT22;2065;49.790;9.620;2023-01-25T06:57:02;6.30;58.10
4103;DHT22;2065;49.790;9.620;2023-01-25T06:59:28;6.40;58.30
4103;DHT22;2065;49.790;9.620;2023-01-25T07:01:57;6.40;58.20
4103;DHT22;2065;49.790;9.620;2023-01-25T07:04:24;6.40;58.30
4103;DHT22;2065;49.790;9.620;2023-01-25T07:06:51;6.60;58.00
4103;DHT22;2065;49.790;9.620;2023-01-25T07:09:18;6.60;57.80
4103;DHT22;2065;49.790;9.620;2023-01-25T07:11:49;6.70;57.80
4103;DHT22;2065;49.790;9.620;2023-01-25T07:14:16;6.50;57.60
4103;DHT22;2065;49.790;9.620;2023-01-25T07:16:43;6.50;57.60
4103;DHT22;2065;49.790;9.620;2023-01-25T07:19:11;6.60;57.70
4103;DHT22;2065;49.790;9.620;2023-01-25T07:21:38;6.50;57.70
4103;DHT22;2065;49.790;9.620;2023-01-25T07:24:06;6.40;57.70
4103;DHT22;2065;49.790;9.620;2023-01-25T07:26:33;6.30;57.90
4103;DHT22;2065;49.790;9.620;2023-01-25T07:29:00;6.20;58.60
4103;DHT22;2065;49.790;9.620;2023-01-25T07:31:27;6.20;58.70
4103;DHT22;2065;49.790;9.620;2023-01-25T07:33:56;6.20;58.30
4103;DHT22;2065;49.790;9.620;2023-01-25T07:36:25;6.20;58.70
4103;DHT22;2065;49.790;9.620;2023-01-25T07:38:52;6.00;58.50
4103;DHT22;2065;49.790;9.620;2023-01-25T07:41:19;6.10;58.40
4103;DHT22;2065;49.790;9.620;2023-01-25T07:43:46;6.30;58.50
4103;DHT22;2065;49.790;9.620;2023-01-25T07:46:20;6.10;58.40
4103;DHT22;2065;49.790;9.620;2023-01-25T07:48:50;6.20;58.40
4103;DHT22;2065;49.790;9.620;2023-01-25T07:51:18;6.30;58.20
4103;DHT22;2065;49.790;9.620;2023-01-25T07:53:52;6.50;58.00
4103;DHT22;2065;49.790;9.620;2023-01-25T07:56:21;6.50;57.70
4103;DHT22;2065;49.790;9.620;2023-01-25T07:58:48;6.60;57.60
4103;DHT22;2065;49.790;9.620;2023-01-25T08:01:17;6.70;57.20
4103;DHT22;2065;49.790;9.620;2023-01-25T08:03:45;6.50;57.40
4103;DHT22;2065;49.790;9.620;2023-01-25T08:06:12;6.50;57.60
4103;DHT22;2065;49.790;9.620;2023-01-25T08:08:42;6.40;57.80
4103;DHT22;2065;49.790;9.620;2023-01-25T08:11:14;6.20;58.00
4103;DHT22;2065;49.790;9.620;2023-01-25T08:13:41;6.20;58.20
4103;DHT22;2065;49.790;9.620;2023-01-25T08:16:12;6.20;58.40
4103;DHT22;2065;49.790;9.620;2023-01-25T08:18:39;5.80;59.10
4103;DHT22;2065;49.790;9.620;2023-01-25T08:21:06;5.90;59.20
4103;DHT22;2065;49.790;9.620;2023-01-25T08:23:33;6.00;59.20
4103;DHT22;2065;49.790;9.620;2023-01-25T08:26:04;5.70;59.40
4103;DHT22;2065;49.790;9.620;2023-01-25T08:28:32;5.70;59.90
4103;DHT22;2065;49.790;9.620;2023-01-25T08:31:04;5.90;59.80
4103;DHT22;2065;49.790;9.620;2023-01-25T08:33:31;5.90;59.50
4103;DHT22;2065;49.790;9.620;2023-01-25T08:35:58;6.00;59.50
4103;DHT22;2065;49.790;9.620;2023-01-25T08:38:25;6.20;59.10
4103;DHT22;2065;49.790;9.620;2023-01-25T08:40:52;6.40;58.90
4103;DHT22;2065;49.790;9.620;2023-01-25T08:43:19;6.60;58.40
4103;DHT22;2065;49.790;9.620;2023-01-25T08:45:55;6.70;58.10
4103;DHT22;2065;49.790;9.620;2023-01-25T08:48:22;6.70;57.90
4103;DHT22;2065;49.790;9.620;2023-01-25T08:50:49;6.70;57.90
4103;DHT22;2065;49.790;9.620;2023-01-25T08:53:16;7.00;57.70
4103;DHT22;2065;49.790;9.620;2023-01-25T08:55:43;7.10;57.40
4103;DHT22;2065;49.790;9.620;2023-01-25T08:58:11;7.20;57.00
4103;DHT22;2065;49.790;9.620;2023-01-25T09:00:39;7.20;56.60
4103;DHT22;2065;49.790;9.620;2023-01-25T09:03:09;6.80;57.00
4103;DHT22;2065;49.790;9.620;2023-01-25T09:05:37;6.50;58.10
4103;DHT22;2065;49.790;9.620;2023-01-25T09:08:06;6.60;58.20
4103;DHT22;2065;49.790;9.620;2023-01-25T09:10:46;6.60;58.20
4103;DHT22;2065;49.790;9.620;2023-01-25T09:13:14;6.60;58.20
4103;DHT22;2065;49.790;9.620;2023-01-25T09:15:42;6.40;58.40
4103;DHT22;2065;49.790;9.620;2023-01-25T09:18:14;6.30;59.20
4103;DHT22;2065;49.790;9.620;2023-01-25T09:20:42;6.60;59.20
4103;DHT22;2065;49.790;9.620;2023-01-25T09:23:09;6.60;58.60
4103;DHT22;2065;49.790;9.620;2023-01-25T09:25:36;6.50;58.60
4103;DHT22;2065;49.790;9.620;2023-01-25T09:28:03;6.70;59.30
4103;DHT22;2065;49.790;9.620;2023-01-25T09:30:37;6.80;58.30
4103;DHT22;2065;49.790;9.620;2023-01-25T09:33:04;6.90;58.40
4103;DHT22;2065;49.790;9.620;2023-01-25T09:35:33;6.90;58.10
4103;DHT22;2065;49.790;9.620;2023-01-25T09:38:00;6.80;57.90
4103;DHT22;2065;49.790;9.620;2023-01-25T09:40:32;6.60;58.50
4103;DHT22;2065;49.790;9.620;2023-01-25T09:43:05;6.70;58.60
4103;DHT22;2065;49.790;9.620;2023-01-25T09:45:33;6.80;58.70
4103;DHT22;2065;49.790;9.620;2023-01-25T09:48:12;7.00;58.10
4103;DHT22;2065;49.790;9.620;2023-01-25T09:50:58;6.60;57.90
4103;DHT22;2065;49.790;9.620;2023-01-25T09:53:33;6.40;58.70
4103;DHT22;2065;49.790;9.620;2023-01-25T09:56:06;6.20;59.90
4103;DHT22;2065;49.790;9.620;2023-01-25T09:58:37;6.20;59.50
4103;DHT22;2065;49.790;9.620;2023-01-25T10:01:15;6.30;59.40
4103;DHT22;2065;49.790;9.620;2023-01-25T10:03:49;6.40;59.30
4103;DHT22;2065;49.790;9.620;2023-01-25T10:06:22;6.60;58.80
4103;DHT22;2065;49.790;9.620;2023-01-25T10:08:55;6.60;58.80
4103;DHT22;2065;49.790;9.620;2023-01-25T10:11:25;6.70;58.90
4103;DHT22;2065;49.790;9.620;2023-01-25T10:13:54;6.60;58.10
4103;DHT22;2065;49.790;9.620;2023-01-25T10:16:25;6.70;58.60
4103;DHT22;2065;49.790;9.620;2023-01-25T10:19:04;6.70;58.70
4103;DHT22;2065;49.790;9.620;2023-01-25T10:21:37;6.80;58.50
4103;DHT22;2065;49.790;9.620;2023-01-25T10:24:30;6.90;58.30
4103;DHT22;2065;49.790;9.620;2023-01-25T10:27:02;6.90;58.30
4103;DHT22;2065;49.790;9.620;2023-01-25T10:29:36;6.90;58.10
4103;DHT22;2065;49.790;9.620;2023-01-25T10:32:12;7.00;58.20
4103;DHT22;2065;49.790;9.620;2023-01-25T10:34:44;7.10;57.80
4103;DHT22;2065;49.790;9.620;2023-01-25T10:37:15;7.10;58.00
4103;DHT22;2065;49.790;9.620;2023-01-25T10:39:51;7.00;57.70
4103;DHT22;2065;49.790;9.620;2023-01-25T10:42:21;6.70;57.90
4103;DHT22;2065;49.790;9.620;2023-01-25T10:44:51;6.60;58.80
4103;DHT22;2065;49.790;9.620;2023-01-25T10:47:22;6.60;58.60
4103;DHT22;2065;49.790;9.620;2023-01-25T10:49:51;6.70;58.70
4103;DHT22;2065;49.790;9.620;2023-01-25T10:52:21;6.60;58.40
4103;DHT22;2065;49.790;9.620;2023-01-25T10:55:09;6.70;58.60
4103;DHT22;2065;49.790;9.620;2023-01-25T10:57:41;6.70;58.50
4103;DHT22;2065;49.790;9.620;2023-01-25T11:00:22;6.90;58.50
4103;DHT22;2065;49.790;9.620;2023-01-25T11:02:49;7.20;58.00
4103;DHT22;2065;49.790;9.620;2023-01-25T11:05:24;7.20;58.10
4103;DHT22;2065;49.790;9.620;2023-01-25T11:07:53;7.10;57.60
4103;DHT22;2065;49.790;9.620;2023-01-25T11:10:30;7.10;57.70
4103;DHT22;2065;49.790;9.620;2023-01-25T11:13:17;7.10;57.20
4103;DHT22;2065;49.790;9.620;2023-01-25T11:15:47;7.10;57.10
4103;DHT22;2065;49.790;9.620;2023-01-25T11:18:18;6.90;56.70
4103;DHT22;2065;49.790;9.620;2023-01-25T11:20:46;6.60;57.50
4103;DHT22;2065;49.790;9.620;2023-01-25T11:23:23;6.40;58.10
4103;DHT22;2065;49.790;9.620;2023-01-25T11:25:51;6.40;58.30
4103;DHT22;2065;49.790;9.620;2023-01-25T11:28:20;6.50;58.20
4103;DHT22;2065;49.790;9.620;2023-01-25T11:30:48;6.40;58.10
4103;DHT22;2065;49.790;9.620;2023-01-25T11:33:18;6.50;57.60
4103;DHT22;2065;49.790;9.620;2023-01-25T11:36:08;6.50;57.90
4103;DHT22;2065;49.790;9.620;2023-01-25T11:38:38;6.70;57.40
4103;DHT22;2065;49.790;9.620;2023-01-25T11:41:16;6.80;57.20
4103;DHT22;2065;49.790;9.620;2023-01-25T11:44:01;6.70;57.00
4103;DHT22;2065;49.790;9.620;2023-01-25T11:46:44;6.80;56.80
4103;DHT22;2065;49.790;9.620;2023-01-25T11:49:35;6.90;56.80
4103;DHT22;2065;49.790;9.620;2023-01-25T11:52:18;7.10;56.30
4103;DHT22;2065;49.790;9.620;2023-01-25T11:54:55;6.80;56.30
4103;DHT22;2065;49.790;9.620;2023-01-25T11:57:41;6.90;56.60
4103;DHT22;2065;49.790;9.620;2023-01-25T12:00:39;6.70;56.70
4103;DHT22;2065;49.790;9.620;2023-01-25T12:03:35;6.60;57.70
4103;DHT22;2065;49.790;9.620;2023-01-25T12:06:13;6.50;57.20
4103;DHT22;2065;49.790;9.620;2023-01-25T12:09:01;6.40;57.40
4103;DHT22;2065;49.790;9.620;2023-01-25T12:11:43;6.50;57.30
4103;DHT22;2065;49.790;9.620;2023-01-25T12:14:22;6.80;57.10
4103;DHT22;2065;49.790;9.620;2023-01-25T12:17:12;6.50;57.10
4103;DHT22;2065;49.790;9.620;2023-01-25T12:19:55;6.30;57.70
4103;DHT22;2065;49.790;9.620;2023-01-25T12:22:40;6.40;57.50
4103;DHT22;2065;49.790;9.620;2023-01-25T12:25:17;6.30;57.90
4103;DHT22;2065;49.790;9.620;2023-01-25T12:27:58;6.30;57.60
4103;DHT22;2065;49.790;9.620;2023-01-25T12:30:42;6.30;58.10
4103;DHT22;2065;49.790;9.620;2023-01-25T12:33:14;6.40;58.10
4103;DHT22;2065;49.790;9.620;2023-01-25T12:35:47;6.30;58.20
4103;DHT22;2065;49.790;9.620;2023-01-25T12:38:18;6.40;58.20
4103;DHT22;2065;49.790;9.620;2023-01-25T12:40:52;6.60;57.80
4103;DHT22;2065;49.790;9.620;2023-01-25T12:43:27;6.80;57.50
4103;DHT22;2065;49.790;9.620;2023-01-25T12:45:56;6.70;57.20
4103;DHT22;2065;49.790;9.620;2023-01-25T12:48:27;6.80;56.60
4103;DHT22;2065;49.790;9.620;2023-01-25T12:50:57;6.50;57.00
4103;DHT22;2065;49.790;9.620;2023-01-25T12:53:26;6.50;57.30
4103;DHT22;2065;49.790;9.620;2023-01-25T12:55:56;6.70;57.00
4103;DHT22;2065;49.790;9.620;2023-01-25T12:58:30;6.60;57.00
4103;DHT22;2065;49.790;9.620;2023-01-25T13:01:07;6.60;57.20
4103;DHT22;2065;49.790;9.620;2023-01-25T13:03:49;6.80;56.70
4103;DHT22;2065;49.790;9.620;2023-01-25T13:06:27;6.80;56.70
4103;DHT22;2065;49.790;9.620;2023-01-25T13:09:03;6.90;56.60
4103;DHT22;2065;49.790;9.620;2023-01-25T13:11:33;6.60;57.00
4103;DHT22;2065;49.790;9.620;2023-01-25T13:14:28;6.50;57.10
4103;DHT22;2065;49.790;9.620;2023-01-25T13:17:19;6.40;57.30
4103;DHT22;2065;49.790;9.620;2023-01-25T13:19:47;6.40;57.50
4103;DHT22;2065;49.790;9.620;2023-01-25T13:22:53;6.60;57.10
4103;DHT22;2065;49.790;9.620;2023-01-25T13:25:23;6.40;57.40
4103;DHT22;2065;49.790;9.620;2023-01-25T13:27:51;6.40;58.10
4103;DHT22;2065;49.790;9.620;2023-01-25T13:30:30;6.60;57.60
4103;DHT22;2065;49.790;9.620;2023-01-25T13:33:00;6.60;57.10
4103;DHT22;2065;49.790;9.620;2023-01-25T13:35:30;6.60;57.20
4103;DHT22;2065;49.790;9.620;2023-01-25T13:41:13;6.30;57.30
4103;DHT22;2065;49.790;9.620;2023-01-25T13:43:44;6.50;57.70
4103;DHT22;2065;49.790;9.620;2023-01-25T13:46:16;6.90;57.20
4103;DHT22;2065;49.790;9.620;2023-01-25T13:51:38;6.80;56.60
4103;DHT22;2065;49.790;9.620;2023-01-25T13:54:13;6.80;56.40
4103;DHT22;2065;49.790;9.620;2023-01-25T13:56:40;6.70;56.50
4103;DHT22;2065;49.790;9.620;2023-01-25T13:59:22;6.30;57.50
4103;DHT22;2065;49.790;9.620;2023-01-25T14:01:51;6.30;58.20
4103;DHT22;2065;49.790;9.620;2023-01-25T14:04:18;6.40;57.20
4103;DHT22;2065;49.790;9.620;2023-01-25T14:06:46;6.70;56.90
4103;DHT22;2065;49.790;9.620;2023-01-25T14:09:16;6.80;56.80
4103;DHT22;2065;49.790;9.620;2023-01-25T14:11:47;6.80;56.30
4103;DHT22;2065;49.790;9.620;2023-01-25T14:14:18;6.60;56.90
4103;DHT22;2065;49.790;9.620;2023-01-25T14:16:45;6.60;57.00
4103;DHT22;2065;49.790;9.620;2023-01-25T14:19:21;6.90;56.70
4103;DHT22;2065;49.790;9.620;2023-01-25T14:21:49;6.90;56.60
4103;DHT22;2065;49.790;9.620;2023-01-25T14:24:16;7.10;56.20
4103;DHT22;2065;49.790;9.620;2023-01-25T14:26:44;7.10;56.10
4103;DHT22;2065;49.790;9.620;2023-01-25T14:29:17;6.90;56.00
4103;DHT22;2065;49.790;9.620;2023-01-25T14:31:48;7.00;56.20
4103;DHT22;2065;49.790;9.620;2023-01-25T14:34:17;7.10;55.90
4103;DHT22;2065;49.790;9.620;2023-01-25T14:36:46;7.20;55.50
4103;DHT22;2065;49.790;9.620;2023-01-25T14:39:23;7.20;55.20
4103;DHT22;2065;49.790;9.620;2023-01-25T14:41:51;7.30;55.40
4103;DHT22;2065;49.790;9.620;2023-01-25T14:44:19;7.30;55.80
4103;DHT22;2065;49.790;9.620;2023-01-25T14:46:47;7.10;54.90
4103;DHT22;2065;49.790;9.620;2023-01-25T14:49:16;7.10;55.20
4103;DHT22;2065;49.790;9.620;2023-01-25T14:51:56;7.10;56.20
4103;DHT22;2065;49.790;9.620;2023-01-25T14:54:26;7.10;55.50
4103;DHT22;2065;49.790;9.620;2023-01-25T14:56:55;7.10;55.70
4103;DHT22;2065;49.790;9.620;2023-01-25T14:59:27;7.20;55.40
4103;DHT22;2065;49.790;9.620;2023-01-25T15:01:56;7.20;55.30
4103;DHT22;2065;49.790;9.620;2023-01-25T15:04:24;7.20;55.30
4103;DHT22;2065;49.790;9.620;2023-01-25T15:06:54;7.20;55.30
4103;DHT22;2065;49.790;9.620;2023-01-25T15:09:34;7.20;55.60
4103;DHT22;2065;49.790;9.620;2023-01-25T15:12:18;7.10;55.60
4103;DHT22;2065;49.790;9.620;2023-01-25T15:14:47;7.00;55.70
4103;DHT22;2065;49.790;9.620;2023-01-25T15:17:40;7.10;55.20
4103;DHT22;2065;49.790;9.620;2023-01-25T15:20:24;7.10;55.30
4103;DHT22;2065;49.790;9.620;2023-01-25T15:22:53;7.10;55.30
4103;DHT22;2065;49.790;9.620;2023-01-25T15:25:20;7.00;55.20
4103;DHT22;2065;49.790;9.620;2023-01-25T15:27:47;6.90;54.90
4103;DHT22;2065;49.790;9.620;2023-01-25T15:30:15;6.80;55.20
4103;DHT22;2065;49.790;9.620;2023-01-25T15:32:43;6.90;55.20
4103;DHT22;2065;49.790;9.620;2023-01-25T15:35:12;7.00;54.80
4103;DHT22;2065;49.790;9.620;2023-01-25T15:37:39;6.90;54.70
4103;DHT22;2065;49.790;9.620;2023-01-25T15:40:09;6.80;54.60
4103;DHT22;2065;49.790;9.620;2023-01-25T15:42:36;6.80;54.90
4103;DHT22;2065;49.790;9.620;2023-01-25T15:45:05;6.60;54.70
4103;DHT22;2065;49.790;9.620;2023-01-25T15:47:34;6.70;55.40
4103;DHT22;2065;49.790;9.620;2023-01-25T15:50:02;6.80;55.00
4103;DHT22;2065;49.790;9.620;2023-01-25T15:52:29;6.90;54.90
4103;DHT22;2065;49.790;9.620;2023-01-25T15:54:56;6.60;55.00
4103;DHT22;2065;49.790;9.620;2023-01-25T15:57:28;6.40;55.40
4103;DHT22;2065;49.790;9.620;2023-01-25T15:59:56;6.30;55.60
4103;DHT22;2065;49.790;9.620;2023-01-25T16:02:23;6.40;55.60
4103;DHT22;2065;49.790;9.620;2023-01-25T16:04:51;6.70;55.30
4103;DHT22;2065;49.790;9.620;2023-01-25T16:07:22;6.90;54.70
4103;DHT22;2065;49.790;9.620;2023-01-25T16:09:50;7.00;54.00
4103;DHT22;2065;49.790;9.620;2023-01-25T16:12:17;6.90;54.30
4103;DHT22;2065;49.790;9.620;2023-01-25T16:14:45;6.70;54.50
4103;DHT22;2065;49.790;9.620;2023-01-25T16:17:15;6.80;55.00
4103;DHT22;2065;49.790;9.620;2023-01-25T16:19:43;6.90;54.40
4103;DHT22;2065;49.790;9.620;2023-01-25T16:22:12;6.90;54.60
4103;DHT22;2065;49.790;9.620;2023-01-25T16:24:40;7.00;54.60
4103;DHT22;2065;49.790;9.620;2023-01-25T16:27:13;7.10;54.70
4103;DHT22;2065;49.790;9.620;2023-01-25T16:29:46;7.00;54.10
4103;DHT22;2065;49.790;9.620;2023-01-25T16:32:14;6.80;54.40
4103;DHT22;2065;49.790;9.620;2023-01-25T16:34:40;6.90;54.10
4103;DHT22;2065;49.790;9.620;2023-01-25T16:37:10;7.00;53.90
4103;DHT22;2065;49.790;9.620;2023-01-25T16:39:40;7.10;53.70
4103;DHT22;2065;49.790;9.620;2023-01-25T16:42:08;7.00;53.30
4103;DHT22;2065;49.790;9.620;2023-01-25T16:44:35;6.80;53.90
4103;DHT22;2065;49.790;9.620;2023-01-25T16:47:04;6.70;54.00